createdAt,value
2022-09-09T00:02:01.856Z,0.52
2022-09-09T00:04:32.307Z,0.50
2022-09-09T00:07:24.375Z,0.55
2022-09-09T00:09:57.378Z,0.40
2022-09-09T00:12:46.815Z,0.65
2022-09-09T00:15:24.088Z,0.50
2022-09-09T00:17:51.207Z,0.50
2022-09-09T00:20:42.413Z,0.50
2022-09-09T00:23:29.709Z,0.73
2022-09-09T00:26:23.116Z,0.88
2022-09-09T00:29:00.861Z,0.50
2022-09-09T00:31:30.495Z,0.50
2022-09-09T00:34:11.001Z,0.50
2022-09-09T00:36:39.533Z,0.50
2022-09-09T00:39:10.942Z,0.55
2022-09-09T00:42:17.820Z,0.40
2022-09-09T00:45:31.570Z,0.90
2022-09-09T00:48:03.162Z,0.50
2022-09-09T00:50:57.986Z,0.70
2022-09-09T00:53:41.006Z,0.50
2022-09-09T00:56:15.662Z,0.55
2022-09-09T00:58:47.589Z,0.80
2022-09-09T01:01:15.190Z,0.50
2022-09-09T01:03:57.124Z,0.80
2022-09-09T01:06:32.424Z,0.70
2022-09-09T01:09:22.329Z,1.20
2022-09-09T01:12:03.485Z,0.50
2022-09-09T01:14:35.507Z,0.68
2022-09-09T01:17:22.109Z,0.98
2022-09-09T01:20:10.810Z,0.93
2022-09-09T01:23:03.203Z,0.80
2022-09-09T01:26:10.639Z,0.70
2022-09-09T01:28:40.076Z,0.60
2022-09-09T01:31:18.122Z,0.80
2022-09-09T01:33:47.821Z,0.60
2022-09-09T01:36:24.229Z,0.80
2022-09-09T01:38:53.698Z,0.88
2022-09-09T01:41:21.689Z,0.60
2022-09-09T01:43:56.523Z,0.80
2022-09-09T01:46:25.134Z,1.00
2022-09-09T01:48:54.658Z,0.95
2022-09-09T01:51:22.695Z,0.82
2022-09-09T01:53:50.729Z,1.20
2022-09-09T01:56:30.922Z,0.80
2022-09-09T01:59:07.436Z,0.70
2022-09-09T02:02:07.531Z,1.15
2022-09-09T02:04:40.168Z,0.60
2022-09-09T02:07:29.724Z,0.60
2022-09-09T02:10:23.985Z,0.40
2022-09-09T02:13:11.535Z,0.40
2022-09-09T02:15:48.361Z,0.40
2022-09-09T02:18:18.248Z,0.50
2022-09-09T02:20:47.030Z,0.63
2022-09-09T02:23:16.244Z,0.60
2022-09-09T02:25:47.395Z,0.50
2022-09-09T02:28:24.360Z,0.55
2022-09-09T02:30:56.281Z,0.70
2022-09-09T02:33:36.591Z,0.93
2022-09-09T02:36:07.797Z,0.60
2022-09-09T02:38:40.799Z,0.60
2022-09-09T02:41:12.115Z,0.57
2022-09-09T02:43:39.709Z,0.73
2022-09-09T02:46:30.058Z,0.77
2022-09-09T02:49:23.864Z,0.47
2022-09-09T02:52:08.805Z,0.90
2022-09-09T02:54:40.142Z,1.08
2022-09-09T02:57:31.131Z,0.70
2022-09-09T03:00:00.086Z,0.68
2022-09-09T03:02:27.668Z,0.95
2022-09-09T03:05:00.898Z,0.50
2022-09-09T03:07:28.543Z,0.85
2022-09-09T03:09:56.615Z,1.00
2022-09-09T03:12:27.112Z,0.75
2022-09-09T03:14:54.329Z,0.50
2022-09-09T03:17:22.137Z,1.13
2022-09-09T03:19:55.522Z,0.73
2022-09-09T03:22:23.059Z,0.68
2022-09-09T03:24:50.437Z,1.25
2022-09-09T03:27:18.767Z,1.23
2022-09-09T03:29:46.427Z,1.33
2022-09-09T03:32:19.736Z,0.90
2022-09-09T03:34:48.521Z,0.70
2022-09-09T03:37:16.317Z,1.00
2022-09-09T03:39:43.673Z,0.70
2022-09-09T03:42:19.977Z,1.38
2022-09-09T03:44:51.477Z,1.00
2022-09-09T03:47:22.876Z,0.82
2022-09-09T03:49:52.663Z,1.25
2022-09-09T03:52:23.691Z,1.25
2022-09-09T03:54:53.960Z,0.90
2022-09-09T03:57:21.796Z,1.23
2022-09-09T03:59:49.639Z,1.02
2022-09-09T04:02:16.892Z,0.80
2022-09-09T04:04:44.287Z,0.60
2022-09-09T04:07:12.925Z,1.13
2022-09-09T04:09:41.079Z,1.27
2022-09-09T04:12:09.155Z,0.70
2022-09-09T04:14:36.505Z,0.98
2022-09-09T04:17:07.314Z,0.73
2022-09-09T04:19:34.903Z,0.90
2022-09-09T04:22:03.026Z,1.60
2022-09-09T04:24:30.236Z,0.75
2022-09-09T04:26:58.987Z,0.73
2022-09-09T04:29:26.314Z,0.98
2022-09-09T04:31:54.362Z,1.13
2022-09-09T04:34:22.195Z,1.52
2022-09-09T04:36:49.863Z,1.20
2022-09-09T04:39:17.113Z,1.17
2022-09-09T04:41:45.095Z,1.67
2022-09-09T04:44:12.389Z,1.05
2022-09-09T04:46:39.846Z,0.70
2022-09-09T04:49:09.225Z,0.85
2022-09-09T04:51:39.451Z,0.90
2022-09-09T04:54:07.007Z,0.80
2022-09-09T04:56:34.303Z,1.42
2022-09-09T04:59:03.964Z,0.60
2022-09-09T05:01:43.644Z,0.65
2022-09-09T05:04:12.204Z,0.85
2022-09-09T05:06:39.452Z,0.55
2022-09-09T05:09:06.858Z,0.85
2022-09-09T05:11:37.079Z,1.40
2022-09-09T05:14:13.209Z,1.00
2022-09-09T05:16:41.183Z,0.82
2022-09-09T05:19:10.180Z,1.10
2022-09-09T05:21:44.785Z,0.95
2022-09-09T05:24:13.174Z,0.90
2022-09-09T05:26:41.110Z,1.40
2022-09-09T05:29:09.363Z,1.25
2022-09-09T05:31:37.837Z,1.67
2022-09-09T05:34:09.890Z,3.75
2022-09-09T05:36:37.159Z,1.40
2022-09-09T05:39:05.126Z,2.10
2022-09-09T05:41:34.010Z,1.50
2022-09-09T05:44:03.294Z,1.80
2022-09-09T05:46:33.674Z,3.25
2022-09-09T05:49:01.338Z,2.00
2022-09-09T05:51:32.808Z,2.13
2022-09-09T05:54:05.158Z,2.47
2022-09-09T05:56:35.555Z,2.20
2022-09-09T05:59:03.092Z,2.00
2022-09-09T06:01:33.893Z,1.83
2022-09-09T06:04:03.424Z,1.95
2022-09-09T06:06:37.556Z,1.52
2022-09-09T06:09:11.284Z,2.58
2022-09-09T06:11:41.558Z,3.88
2022-09-09T06:14:09.823Z,2.05
2022-09-09T06:16:43.382Z,2.10
2022-09-09T06:19:17.451Z,1.60
2022-09-09T06:21:45.522Z,1.90
2022-09-09T06:24:14.936Z,2.83
2022-09-09T06:26:42.848Z,1.92
2022-09-09T06:29:13.784Z,2.70
2022-09-09T06:31:42.886Z,1.98
2022-09-09T06:34:15.669Z,3.30
2022-09-09T06:36:47.294Z,1.90
2022-09-09T06:39:16.526Z,1.15
2022-09-09T06:41:44.384Z,1.65
2022-09-09T06:44:40.821Z,2.63
2022-09-09T06:47:12.892Z,2.17
2022-09-09T06:49:43.753Z,3.20
2022-09-09T06:52:13.017Z,2.20
2022-09-09T06:54:40.314Z,1.65
2022-09-09T06:57:33.694Z,1.20
2022-09-09T06:59:56.759Z,2.05
2022-09-09T07:02:24.186Z,1.95
2022-09-09T07:04:52.684Z,1.20
2022-09-09T07:07:20.262Z,2.55
2022-09-09T07:09:47.636Z,1.65
2022-09-09T07:12:15.215Z,1.52
2022-09-09T07:17:16.862Z,1.02
2022-09-09T07:19:44.525Z,3.40
2022-09-09T07:22:11.808Z,2.15
2022-09-09T07:24:39.778Z,2.72
2022-09-09T07:27:07.817Z,1.52
2022-09-09T07:29:36.505Z,2.08
2022-09-09T07:32:05.354Z,1.67
2022-09-09T07:34:36.496Z,1.50
2022-09-09T07:37:03.988Z,1.70
2022-09-09T07:39:32.692Z,2.45
2022-09-09T07:41:59.924Z,1.77
2022-09-09T07:44:28.055Z,1.65
2022-09-09T07:47:08.869Z,1.75
2022-09-09T07:49:40.329Z,1.55
2022-09-09T07:52:09.004Z,1.67
2022-09-09T07:54:38.596Z,1.65
2022-09-09T07:57:07.289Z,1.85
2022-09-09T07:59:36.808Z,2.35
2022-09-09T08:02:04.751Z,3.08
2022-09-09T08:04:34.595Z,2.28
2022-09-09T08:07:04.505Z,1.52
2022-09-09T08:09:37.649Z,2.10
2022-09-09T08:12:14.121Z,1.25
2022-09-09T08:14:41.493Z,1.38
2022-09-09T08:17:09.171Z,1.80
2022-09-09T08:19:37.040Z,1.65
2022-09-09T08:22:09.600Z,1.73
2022-09-09T08:24:39.118Z,1.98
2022-09-09T08:27:07.590Z,1.00
2022-09-09T08:29:34.915Z,2.25
2022-09-09T08:32:03.357Z,1.52
2022-09-09T08:34:32.328Z,3.20
2022-09-09T08:37:02.254Z,2.75
2022-09-09T08:39:35.510Z,1.83
2022-09-09T08:42:06.320Z,1.40
2022-09-09T08:47:53.566Z,3.25
2022-09-09T08:50:35.075Z,3.72
2022-09-09T08:53:14.885Z,3.33
2022-09-09T08:56:03.606Z,2.50
2022-09-09T08:59:03.708Z,2.92
2022-09-09T09:02:03.106Z,2.55
2022-09-09T09:04:52.545Z,2.30
2022-09-09T09:07:42.991Z,3.55
2022-09-09T09:10:53.092Z,3.20
2022-09-09T09:13:43.145Z,2.25
2022-09-09T09:16:41.120Z,2.08
2022-09-09T09:19:16.813Z,3.22
2022-09-09T09:22:05.659Z,4.28
2022-09-09T09:24:58.938Z,2.58
2022-09-09T09:27:40.895Z,4.00
2022-09-09T09:30:25.590Z,4.40
2022-09-09T09:33:03.606Z,3.40
2022-09-09T09:35:31.513Z,3.83
2022-09-09T09:40:53.058Z,3.03
2022-09-09T09:43:25.953Z,3.88
2022-09-09T09:46:14.324Z,5.10
2022-09-09T09:48:41.430Z,5.90
2022-09-09T09:51:16.605Z,4.05
2022-09-09T09:53:44.876Z,4.40
2022-09-09T09:56:15.909Z,5.47
2022-09-09T09:58:47.208Z,4.55
2022-09-09T10:01:28.909Z,3.53
2022-09-09T10:03:59.743Z,5.07
2022-09-09T10:06:35.888Z,3.40
2022-09-09T10:09:05.585Z,5.88
2022-09-09T10:11:51.066Z,4.03
2022-09-09T10:14:31.338Z,6.55
2022-09-09T10:17:18.598Z,8.30
2022-09-09T10:20:15.264Z,7.50
2022-09-09T10:23:05.351Z,6.85
2022-09-09T10:26:11.464Z,6.57
2022-09-09T10:28:50.502Z,6.35
2022-09-09T10:31:31.439Z,5.38
2022-09-09T10:34:08.066Z,5.50
2022-09-09T10:36:40.234Z,4.80
2022-09-09T10:39:43.159Z,6.63
2022-09-09T10:42:15.378Z,5.82
2022-09-09T10:44:58.532Z,4.25
2022-09-09T10:47:44.346Z,4.97
2022-09-09T10:53:32.522Z,5.78
2022-09-09T10:56:07.026Z,3.85
2022-09-09T10:58:45.470Z,4.60
2022-09-09T11:01:26.687Z,5.47
2022-09-09T11:04:00.233Z,5.50
2022-09-09T11:06:36.491Z,3.63
2022-09-09T11:09:06.096Z,3.35
2022-09-09T11:11:43.697Z,3.63
2022-09-09T11:14:26.229Z,2.60
2022-09-09T11:17:30.047Z,1.90
2022-09-09T11:19:57.389Z,1.60
2022-09-09T11:22:56.951Z,2.20
2022-09-09T11:25:44.860Z,1.60
2022-09-09T11:28:23.846Z,1.38
2022-09-09T11:31:02.534Z,1.30
2022-09-09T11:33:53.986Z,1.02
2022-09-09T11:36:28.485Z,1.10
2022-09-09T11:41:38.411Z,2.58
2022-09-09T11:44:18.108Z,1.50
2022-09-09T11:46:50.384Z,2.08
2022-09-09T11:49:31.765Z,1.80
2022-09-09T11:51:59.112Z,2.25
2022-09-09T11:54:45.574Z,1.98
2022-09-09T11:57:32.097Z,1.10
2022-09-09T12:00:00.061Z,1.35
2022-09-09T12:02:29.568Z,1.20
2022-09-09T12:05:09.899Z,1.52
2022-09-09T12:07:40.072Z,1.45
2022-09-09T12:10:21.989Z,1.70
2022-09-09T12:12:49.278Z,1.02
2022-09-09T12:15:24.670Z,1.30
2022-09-09T12:18:00.115Z,1.45
2022-09-09T12:20:37.355Z,1.23
2022-09-09T12:23:15.149Z,1.63
2022-09-09T12:25:51.325Z,1.75
2022-09-09T12:28:44.993Z,1.20
2022-09-09T12:31:31.677Z,0.90
2022-09-09T12:34:13.012Z,1.05
2022-09-09T12:36:42.436Z,1.02
2022-09-09T12:39:28.329Z,1.30
2022-09-09T12:41:57.794Z,1.25
2022-09-09T12:44:29.101Z,1.83
2022-09-09T12:47:02.471Z,1.15
2022-09-09T12:49:42.293Z,1.42
2022-09-09T12:52:18.160Z,1.30
2022-09-09T12:54:52.595Z,0.90
2022-09-09T12:57:19.870Z,1.38
2022-09-09T12:59:47.154Z,0.80
2022-09-09T13:02:27.261Z,1.80
2022-09-09T13:04:55.349Z,1.05
2022-09-09T13:07:22.798Z,1.05
2022-09-09T13:09:50.865Z,1.40
2022-09-09T13:12:20.622Z,1.20
2022-09-09T13:14:51.955Z,1.50
2022-09-09T13:17:23.172Z,1.10
2022-09-09T13:19:53.915Z,1.45
2022-09-09T13:22:28.585Z,1.17
2022-09-09T13:25:12.071Z,1.00
2022-09-09T13:27:42.694Z,1.10
2022-09-09T13:30:42.102Z,0.88
2022-09-09T13:33:13.124Z,0.95
2022-09-09T13:36:05.099Z,0.98
2022-09-09T13:38:52.470Z,1.05
2022-09-09T13:41:25.886Z,0.90
2022-09-09T13:43:54.086Z,0.90
2022-09-09T13:46:24.272Z,1.00
2022-09-09T13:48:59.311Z,1.00
2022-09-09T13:51:38.235Z,1.30
2022-09-09T13:54:11.234Z,1.10
2022-09-09T13:56:40.537Z,2.20
2022-09-09T13:59:12.698Z,1.00
2022-09-09T14:01:39.946Z,1.33
2022-09-09T14:04:07.678Z,1.05
2022-09-09T14:06:39.261Z,1.23
2022-09-09T14:09:08.170Z,1.20
2022-09-09T14:11:35.397Z,1.02
2022-09-09T14:14:02.717Z,1.48
2022-09-09T14:16:30.329Z,1.17
2022-09-09T14:18:58.194Z,0.82
2022-09-09T14:21:25.788Z,1.73
2022-09-09T14:23:56.407Z,0.73
2022-09-09T14:26:24.560Z,0.80
2022-09-09T14:28:56.268Z,1.17
2022-09-09T14:31:25.099Z,1.00
2022-09-09T14:33:53.645Z,0.80
2022-09-09T14:36:21.125Z,0.70
2022-09-09T14:38:49.277Z,0.95
2022-09-09T14:41:19.240Z,0.90
2022-09-09T14:43:47.318Z,1.13
2022-09-09T14:46:16.794Z,1.60
2022-09-09T14:48:49.581Z,0.80
2022-09-09T14:51:26.138Z,0.80
2022-09-09T14:53:54.827Z,0.93
2022-09-09T14:56:24.160Z,1.08
2022-09-09T14:58:52.134Z,0.90
2022-09-09T15:01:21.541Z,0.70
2022-09-09T15:04:04.334Z,1.02
2022-09-09T15:06:34.424Z,0.60
2022-09-09T15:09:02.110Z,0.60
2022-09-09T15:11:31.956Z,0.52
2022-09-09T15:13:59.647Z,0.70
2022-09-09T15:16:29.026Z,0.70
2022-09-09T15:18:58.706Z,0.63
2022-09-09T15:21:28.763Z,0.52
2022-09-09T15:23:57.414Z,0.70
2022-09-09T15:26:24.892Z,0.50
2022-09-09T15:28:52.208Z,0.40
2022-09-09T15:31:24.396Z,0.43
2022-09-09T15:33:53.522Z,0.47
2022-09-09T15:36:26.478Z,0.40
2022-09-09T15:38:54.140Z,0.30
2022-09-09T15:41:23.155Z,0.40
2022-09-09T15:43:53.534Z,0.40
2022-09-09T15:46:29.963Z,0.50
2022-09-09T15:49:00.184Z,0.60
2022-09-09T15:51:44.252Z,0.30
2022-09-09T15:54:21.847Z,0.60
2022-09-09T15:56:57.398Z,0.52
2022-09-09T15:59:25.960Z,0.50
2022-09-09T16:01:53.434Z,0.50
2022-09-09T16:04:24.463Z,1.10
2022-09-09T16:06:58.763Z,1.15
2022-09-09T16:09:27.058Z,0.85
2022-09-09T16:11:57.076Z,0.60
2022-09-09T16:14:25.854Z,0.80
2022-09-09T16:16:53.424Z,0.70
2022-09-09T16:19:21.143Z,0.50
2022-09-09T16:21:50.066Z,0.65
2022-09-09T16:24:19.415Z,0.43
2022-09-09T16:26:48.924Z,0.70
2022-09-09T16:29:18.364Z,0.60
2022-09-09T16:31:49.589Z,0.70
2022-09-09T16:34:18.592Z,0.60
2022-09-09T16:36:46.544Z,0.50
2022-09-09T16:39:20.086Z,0.50
2022-09-09T16:41:49.390Z,0.50
2022-09-09T16:44:19.374Z,0.85
2022-09-09T16:46:49.854Z,0.80
2022-09-09T16:49:17.337Z,0.75
2022-09-09T16:51:48.303Z,0.93
2022-09-09T16:54:18.149Z,0.70
2022-09-09T16:56:47.735Z,1.00
2022-09-09T16:59:18.344Z,0.82
2022-09-09T17:01:47.630Z,0.80
2022-09-09T17:04:21.546Z,0.70
2022-09-09T17:06:51.458Z,0.85
2022-09-09T17:09:19.468Z,0.80
2022-09-09T17:11:48.424Z,0.70
2022-09-09T17:14:18.269Z,0.98
2022-09-09T17:16:46.025Z,0.90
2022-09-09T17:19:14.034Z,0.82
2022-09-09T17:21:54.988Z,0.90
2022-09-09T17:24:30.304Z,0.90
2022-09-09T17:26:58.529Z,0.98
2022-09-09T17:29:26.292Z,1.13
2022-09-09T17:31:53.744Z,1.27
2022-09-09T17:34:21.125Z,0.90
2022-09-09T17:36:49.159Z,0.90
2022-09-09T17:39:16.535Z,1.38
2022-09-09T17:41:43.853Z,2.08
2022-09-09T17:44:11.288Z,1.27
2022-09-09T17:46:41.631Z,1.23
2022-09-09T17:49:13.131Z,1.40
2022-09-09T17:51:42.647Z,1.60
2022-09-09T17:54:14.581Z,1.67
2022-09-09T17:56:42.380Z,1.52
2022-09-09T17:59:13.193Z,1.45
2022-09-09T18:01:45.039Z,1.33
2022-09-09T18:04:14.935Z,1.23
2022-09-09T18:06:45.338Z,1.00
2022-09-09T18:09:18.620Z,1.20
2022-09-09T18:11:51.641Z,1.67
2022-09-09T18:14:22.075Z,1.40
2022-09-09T18:16:49.722Z,2.47
2022-09-09T18:19:22.770Z,2.83
2022-09-09T18:21:50.686Z,2.42
2022-09-09T18:24:19.624Z,2.25
2022-09-09T18:26:48.312Z,2.05
2022-09-09T18:29:20.095Z,1.95
2022-09-09T18:31:48.570Z,2.20
2022-09-09T18:34:18.254Z,1.95
2022-09-09T18:36:48.256Z,1.98
2022-09-09T18:39:17.732Z,2.03
2022-09-09T18:41:51.903Z,2.30
2022-09-09T18:44:21.688Z,2.05
2022-09-09T18:46:49.671Z,1.65
2022-09-09T18:49:17.222Z,1.35
2022-09-09T18:51:46.560Z,1.00
2022-09-09T18:54:16.126Z,0.90
2022-09-09T18:56:44.485Z,0.98
2022-09-09T18:59:15.247Z,0.90
2022-09-09T19:01:44.626Z,1.00
2022-09-09T19:04:12.370Z,1.48
2022-09-09T19:06:47.699Z,0.80
2022-09-09T19:09:17.019Z,1.70
2022-09-09T19:11:45.034Z,1.45
2022-09-09T19:14:15.399Z,1.65
2022-09-09T19:16:44.546Z,0.93
2022-09-09T19:19:20.652Z,1.05
2022-09-09T19:21:48.566Z,1.50
2022-09-09T19:24:23.811Z,1.05
2022-09-09T19:26:54.437Z,1.27
2022-09-09T19:29:27.200Z,1.67
2022-09-09T19:32:36.482Z,1.23
2022-09-09T19:34:44.224Z,2.08
2022-09-09T19:37:16.364Z,1.38
2022-09-09T19:39:46.627Z,1.48
2022-09-09T19:42:14.791Z,1.58
2022-09-09T19:44:42.063Z,1.48
2022-09-09T19:47:09.318Z,1.27
2022-09-09T19:49:37.322Z,1.75
2022-09-09T19:52:04.821Z,1.52
2022-09-09T19:54:32.280Z,1.55
2022-09-09T19:57:01.209Z,1.65
2022-09-09T19:59:29.069Z,1.58
2022-09-09T20:01:57.063Z,1.63
2022-09-09T20:04:24.764Z,1.10
2022-09-09T20:06:53.293Z,0.98
2022-09-09T20:09:22.065Z,1.27
2022-09-09T20:11:50.054Z,1.10
2022-09-09T20:14:18.486Z,0.90
2022-09-09T20:16:46.699Z,1.33
2022-09-09T20:19:16.618Z,1.48
2022-09-09T20:21:48.019Z,1.20
2022-09-09T20:24:18.892Z,1.20
2022-09-09T20:26:48.246Z,1.27
2022-09-09T20:29:18.373Z,1.48
2022-09-09T20:31:46.688Z,1.88
2022-09-09T20:34:18.672Z,1.48
2022-09-09T20:36:47.360Z,1.05
2022-09-09T20:39:20.677Z,1.20
2022-09-09T20:41:48.806Z,1.40
2022-09-09T20:44:18.954Z,1.48
2022-09-09T20:46:48.323Z,1.15
2022-09-09T20:49:17.773Z,1.45
2022-09-09T20:51:45.696Z,1.27
2022-09-09T20:54:19.852Z,1.20
2022-09-09T20:56:48.286Z,1.73
2022-09-09T20:59:18.411Z,1.58
2022-09-09T21:01:50.193Z,1.00
2022-09-09T21:04:19.831Z,0.95
2022-09-09T21:06:50.033Z,0.90
2022-09-09T21:09:18.147Z,1.33
2022-09-09T21:11:47.296Z,1.20
2022-09-09T21:14:14.851Z,1.17
2022-09-09T21:16:42.223Z,0.90
2022-09-09T21:19:09.696Z,1.35
2022-09-09T21:21:37.370Z,1.27
2022-09-09T21:24:04.861Z,1.20
2022-09-09T21:26:32.488Z,1.40
2022-09-09T21:28:59.855Z,1.83
2022-09-09T21:31:28.515Z,2.03
2022-09-09T21:33:58.747Z,2.15
2022-09-09T21:36:28.597Z,2.88
2022-09-09T21:38:58.843Z,2.55
2022-09-09T21:41:26.343Z,2.83
2022-09-09T21:43:54.537Z,2.92
2022-09-09T21:46:23.550Z,2.33
2022-09-09T21:48:51.414Z,1.65
2022-09-09T21:51:19.315Z,1.55
2022-09-09T21:53:46.792Z,1.50
2022-09-09T21:56:16.890Z,1.48
2022-09-09T21:58:45.061Z,1.65
2022-09-09T22:01:17.907Z,1.40
2022-09-09T22:03:45.885Z,1.23
2022-09-09T22:06:16.330Z,1.20
2022-09-09T22:08:44.708Z,2.72
2022-09-09T22:11:17.443Z,1.08
2022-09-09T22:13:49.009Z,1.52
2022-09-09T22:16:19.958Z,2.33
2022-09-09T22:18:57.162Z,1.45
2022-09-09T22:21:26.308Z,2.00
2022-09-09T22:24:02.475Z,2.47
2022-09-09T22:26:31.892Z,3.30
2022-09-09T22:28:59.536Z,2.30
2022-09-09T22:31:28.156Z,2.83
2022-09-09T22:33:55.813Z,2.42
2022-09-09T22:36:23.817Z,2.50
2022-09-09T22:38:51.897Z,2.95
2022-09-09T22:41:20.080Z,1.77
2022-09-09T22:43:48.125Z,2.17
2022-09-09T22:46:16.012Z,2.67
2022-09-09T22:48:43.892Z,3.22
2022-09-09T22:51:13.477Z,2.15
2022-09-09T22:53:44.703Z,2.97
2022-09-09T22:56:18.441Z,2.45
2022-09-09T22:58:46.557Z,1.70
2022-09-09T23:01:16.932Z,1.95
2022-09-09T23:03:47.905Z,2.10
2022-09-09T23:06:23.754Z,1.88
2022-09-09T23:08:56.766Z,3.30
2022-09-09T23:14:00.693Z,2.42
2022-09-09T23:16:32.963Z,2.75
2022-09-09T23:19:03.405Z,1.90
2022-09-09T23:21:32.088Z,2.35
2022-09-09T23:24:00.465Z,2.10
2022-09-09T23:26:30.013Z,2.60
2022-09-09T23:28:59.166Z,2.03
2022-09-09T23:31:29.340Z,2.35
2022-09-09T23:33:58.288Z,2.80
2022-09-09T23:36:26.646Z,3.03
2022-09-09T23:38:56.313Z,3.05
2022-09-09T23:41:23.977Z,4.88
2022-09-09T23:43:52.940Z,2.90
2022-09-09T23:46:23.432Z,2.67
2022-09-09T23:48:51.910Z,2.67
2022-09-09T23:51:24.172Z,2.90
2022-09-09T23:53:53.930Z,2.58
2022-09-09T23:56:22.870Z,2.92
2022-09-09T23:58:50.839Z,2.40
